Time;durP1;ratioP1;P1;durP2;ratioP2;P2;SDS_P1;SDS_P2;PMS_P1;PMS_P2;Temp;Humidity;BMP_temperature;BMP_pressure;BME280_temperature;BME280_humidity;BME280_pressure;Samples;Min_cycle;Max_cycle;Signal;HPM_P1;HPM_P2
2022/04/15 00:02:40;;;;;;;24.30;15.13;;;;;;;11.61;88.36;100824.34;3568632;81;98871;-79
2022/04/15 00:07:41;;;;;;;24.80;15.27;;;;;;;11.61;88.32;100826.50;3565482;81;99071;-79
2022/04/15 00:12:42;;;;;;;32.37;17.70;;;;;;;11.58;88.62;100823.67;3569365;80;99652;-79
2022/04/15 00:17:43;;;;;;;38.07;19.97;;;;;;;11.62;88.38;100826.70;3562534;80;99599;-79
2022/04/15 00:22:44;;;;;;;31.40;18.67;;;;;;;11.57;89.52;100823.47;3569208;81;99225;-79
2022/04/15 00:27:45;;;;;;;30.83;17.70;;;;;;;11.49;89.15;100826.70;3562397;81;99164;-79
2022/04/15 00:32:46;;;;;;;29.27;17.97;;;;;;;11.45;89.04;100811.30;3569737;81;34796;-79
2022/04/15 00:37:48;;;;;;;32.20;16.73;;;;;;;11.43;88.85;100812.23;3564978;80;99352;-79
2022/04/15 00:42:49;;;;;;;34.33;17.63;;;;;;;11.40;88.88;100808.27;3567025;81;99192;-79
2022/04/15 00:47:53;;;;;;;33.18;17.95;;;;;;;11.38;89.55;100812.56;3562762;81;99150;-79
2022/04/15 00:52:58;;;;;;;33.65;17.98;;;;;;;11.36;89.28;100815.71;3570022;81;99250;-79
2022/04/15 00:58:01;;;;;;;31.15;16.52;;;;;;;11.39;89.97;100815.55;3549908;82;99195;-79
2022/04/15 01:03:06;;;;;;;40.43;20.08;;;;;;;11.36;90.21;100809.39;3563932;81;35804;-79
2022/04/15 01:08:08;;;;;;;37.63;21.35;;;;;;;11.37;91.51;100810.98;3569470;80;99606;-79
2022/04/15 01:13:13;;;;;;;35.98;19.98;;;;;;;11.32;92.37;100816.23;3567400;81;99390;-79
2022/04/15 01:18:14;;;;;;;36.03;19.52;;;;;;;11.32;92.58;100820.94;3548941;81;99114;-79
2022/04/15 01:23:15;;;;;;;33.10;18.37;;;;;;;11.28;93.29;100816.77;3566596;81;99262;-78
2022/04/15 01:28:17;;;;;;;30.87;17.57;;;;;;;11.28;93.14;100809.87;3554836;81;99239;-79
2022/04/15 01:33:18;;;;;;;33.67;18.53;;;;;;;11.29;93.48;100810.08;3568731;81;28104;-79
2022/04/15 01:38:20;;;;;;;31.70;18.83;;;;;;;11.29;94.22;100807.92;3561055;80;98979;-79
2022/04/15 01:43:21;;;;;;;27.95;16.40;;;;;;;11.26;94.43;100798.44;3562489;81;99110;-78
2022/04/15 01:48:22;;;;;;;29.13;15.43;;;;;;;11.28;94.76;100795.32;3560962;81;99209;-76
2022/04/15 01:53:23;;;;;;;28.13;15.67;;;;;;;11.28;95.22;100785.67;3567930;82;99472;-76
2022/04/15 01:58:24;;;;;;;23.43;14.17;;;;;;;11.29;95.14;100774.86;3561519;80;99234;-76
2022/04/15 02:03:25;;;;;;;22.05;13.65;;;;;;;11.31;94.65;100778.02;3560684;81;26196;-77
2022/04/15 02:08:26;;;;;;;21.37;13.17;;;;;;;11.31;94.93;100782.97;3560636;81;99580;-77
2022/04/15 02:13:27;;;;;;;24.30;14.57;;;;;;;11.33;94.61;100782.60;3569863;81;98941;-78
2022/04/15 02:18:28;;;;;;;22.60;13.00;;;;;;;11.34;94.98;100770.41;3554854;81;99184;-79
2022/04/15 02:23:29;;;;;;;26.10;16.00;;;;;;;11.31;95.30;100770.56;3567852;81;99179;-78
2022/04/15 02:28:29;;;;;;;24.80;14.70;;;;;;;11.33;95.12;100770.20;3562046;81;99233;-80
2022/04/15 02:33:30;;;;;;;24.90;14.83;;;;;;;11.34;94.64;100766.27;3569428;81;28268;-80
2022/04/15 02:38:31;;;;;;;27.00;16.17;;;;;;;11.38;94.35;100761.58;3562186;81;99126;-79
2022/04/15 02:43:33;;;;;;;30.73;17.27;;;;;;;11.40;95.01;100762.80;3572999;80;99013;-80
2022/04/15 02:48:35;;;;;;;28.87;17.43;;;;;;;11.42;95.90;100759.09;3562149;81;99123;-80
2022/04/15 02:53:36;;;;;;;27.50;17.37;;;;;;;11.42;95.99;100760.48;3569005;80;99300;-81
2022/04/15 02:58:37;;;;;;;26.97;16.37;;;;;;;11.41;96.40;100758.89;3564487;81;99180;-80
2022/04/15 03:03:38;;;;;;;27.90;16.50;;;;;;;11.40;96.67;100763.39;3567989;81;25856;-81
2022/04/15 03:08:39;;;;;;;28.90;17.90;;;;;;;11.38;97.32;100769.84;3562434;81;98759;-81
2022/04/15 03:13:40;;;;;;;29.23;17.30;;;;;;;11.23;97.73;100748.80;3569356;81;98944;-80
2022/04/15 03:18:41;;;;;;;24.07;14.00;;;;;;;11.32;98.50;100779.03;3563143;81;99162;-80
2022/04/15 03:23:42;;;;;;;21.93;13.33;;;;;;;11.27;98.73;100760.64;3572008;81;99227;-81
2022/04/15 03:28:44;;;;;;;21.77;13.10;;;;;;;11.24;99.17;100751.16;3562239;81;99104;-80
2022/04/15 03:33:45;;;;;;;18.80;11.70;;;;;;;11.26;99.37;100753.55;3569094;80;99127;-80
2022/04/15 03:38:46;;;;;;;17.50;9.05;;;;;;;11.26;99.03;100754.93;3563801;80;98609;-81
2022/04/15 03:43:47;;;;;;;13.77;7.97;;;;;;;11.27;98.47;100762.02;3569577;81;98848;-79
2022/04/15 03:48:48;;;;;;;20.40;11.15;;;;;;;11.27;97.55;100759.27;3562944;81;99049;-81
2022/04/15 03:53:49;;;;;;;18.87;11.70;;;;;;;11.32;97.82;100763.08;3540445;81;99265;-81
2022/04/15 03:58:50;;;;;;;15.83;10.68;;;;;;;11.28;98.58;100739.61;3563816;81;99158;-82
2022/04/15 04:03:52;;;;;;;17.80;11.03;;;;;;;11.27;98.63;100757.31;3568385;80;99610;-80
2022/04/15 04:08:53;;;;;;;21.73;13.68;;;;;;;11.26;99.17;100748.84;3565518;81;98562;-80
2022/04/15 04:13:54;;;;;;;23.13;15.23;;;;;;;11.26;99.35;100758.48;3569417;81;99028;-82
2022/04/15 04:18:55;;;;;;;21.43;13.47;;;;;;;11.28;99.96;100747.10;3563721;81;99164;-81
2022/04/15 04:23:56;;;;;;;23.00;14.73;;;;;;;11.25;99.88;100746.45;3570175;80;99220;-81
2022/04/15 04:28:57;;;;;;;22.73;13.97;;;;;;;11.25;99.37;100752.78;3556030;80;99653;-81
2022/04/15 04:33:58;;;;;;;27.37;17.20;;;;;;;11.28;98.80;100767.77;3567237;81;99242;-80
2022/04/15 04:38:59;;;;;;;29.60;18.53;;;;;;;11.32;98.66;100769.97;3569194;80;98977;-80
2022/04/15 04:44:00;;;;;;;26.87;17.67;;;;;;;11.35;99.65;100767.85;3572472;81;99069;-79
2022/04/15 04:49:01;;;;;;;32.30;20.73;;;;;;;11.37;100.00;100771.02;3565313;81;99282;-79
2022/04/15 04:54:02;;;;;;;29.15;18.90;;;;;;;11.37;100.00;100771.02;3575580;81;99447;-79
2022/04/15 04:59:04;;;;;;;35.40;22.02;;;;;;;11.38;100.00;100767.09;3568556;81;99392;-79
2022/04/15 05:04:05;;;;;;;41.37;22.85;;;;;;;11.41;100.00;100778.19;3574348;81;106440;-79
2022/04/15 05:09:06;;;;;;;33.53;21.20;;;;;;;11.43;100.00;100775.03;3577377;81;32269;-79
2022/04/15 05:14:06;;;;;;;38.20;25.23;;;;;;;11.42;100.00;100778.96;3567092;81;99331;-79
2022/04/15 05:19:07;;;;;;;42.43;26.13;;;;;;;11.41;100.00;100786.45;3568293;80;99229;-80
2022/04/15 05:24:09;;;;;;;40.77;25.73;;;;;;;11.39;100.00;100780.50;3568272;80;99414;-79
2022/04/15 05:29:10;;;;;;;38.40;24.30;;;;;;;11.40;100.00;100784.06;3569181;80;99809;-80
2022/04/15 05:34:11;;;;;;;40.17;23.60;;;;;;;11.45;100.00;100784.52;3574314;80;99418;-80
2022/04/15 05:39:12;;;;;;;38.75;24.23;;;;;;;11.48;100.00;100782.41;3605673;80;33213;-80
2022/04/15 05:44:14;;;;;;;35.13;22.27;;;;;;;11.49;100.00;100785.36;3610392;80;99219;-80
2022/04/15 05:49:16;;;;;;;30.37;20.73;;;;;;;11.54;100.00;100792.50;3607118;80;99719;-80
2022/04/15 05:54:17;;;;;;;32.42;20.75;;;;;;;11.57;100.00;100795.90;3600829;80;99406;-80
2022/04/15 05:59:23;;;;;;;35.47;21.93;;;;;;;11.59;100.00;100801.28;3608831;80;99316;-80
2022/04/15 06:04:21;;;;;;;29.45;20.50;;;;;;;11.63;100.00;100801.32;3579898;80;99556;-81
2022/04/15 06:09:22;;;;;;;30.87;20.63;;;;;;;11.67;100.00;100824.23;3606843;80;31769;-81
2022/04/15 06:14:23;;;;;;;28.53;19.50;;;;;;;11.71;100.00;100825.05;3602854;79;99300;-81
2022/04/15 06:19:24;;;;;;;30.03;20.27;;;;;;;11.70;100.00;100827.02;3606458;80;99177;-81
2022/04/15 06:24:25;;;;;;;28.80;19.20;;;;;;;11.72;100.00;100815.02;3604670;80;99510;-81
2022/04/15 06:29:26;;;;;;;28.63;17.90;;;;;;;11.76;100.00;100813.69;3605539;80;99429;-81
2022/04/15 06:34:27;;;;;;;32.70;20.57;;;;;;;11.89;100.00;100821.34;3592464;80;99419;-81
2022/04/15 06:39:28;;;;;;;29.23;18.70;;;;;;;12.01;100.00;100829.95;3612118;80;32257;-81
2022/04/15 06:44:29;;;;;;;27.77;18.20;;;;;;;12.18;100.00;100845.91;3593452;80;99283;-82
2022/04/15 06:49:30;;;;;;;27.63;17.67;;;;;;;12.22;100.00;100847.53;3598690;80;99682;-81
2022/04/15 06:54:31;;;;;;;27.30;18.10;;;;;;;12.26;100.00;100839.31;3592831;80;99386;-81
2022/04/15 06:59:33;;;;;;;25.57;18.40;;;;;;;12.38;100.00;100835.68;3598347;80;99420;-82
2022/04/15 07:04:34;;;;;;;29.50;18.27;;;;;;;12.56;100.00;100834.48;3592560;80;99413;-81
2022/04/15 07:09:35;;;;;;;32.47;18.23;;;;;;;12.61;99.93;100836.33;3598311;80;26595;-82
2022/04/15 07:14:36;;;;;;;30.70;20.43;;;;;;;12.64;98.86;100835.55;3600755;80;99209;-82
2022/04/15 07:19:38;;;;;;;27.80;18.93;;;;;;;12.64;98.34;100831.41;3595120;80;100218;-81
2022/04/15 07:24:39;;;;;;;24.27;16.17;;;;;;;12.55;98.56;100849.47;3592574;80;99544;-81
2022/04/15 07:29:41;;;;;;;27.22;16.67;;;;;;;12.42;98.46;100851.70;3600312;80;99304;-82
2022/04/15 07:34:42;;;;;;;26.30;15.47;;;;;;;12.35;98.17;100855.77;3587492;80;99139;-82
2022/04/15 07:39:44;;;;;;;26.03;16.80;;;;;;;12.29;98.25;100857.29;3559533;81;99514;-80
2022/04/15 07:44:45;;;;;;;23.50;14.97;;;;;;;12.29;98.47;100861.43;3576949;81;99006;-80
2022/04/15 07:49:46;;;;;;;26.97;16.20;;;;;;;12.19;98.33;100866.23;3582718;81;99451;-80
2022/04/15 07:54:48;;;;;;;24.03;15.30;;;;;;;12.17;98.47;100869.97;3575823;81;99317;-81
2022/04/15 07:59:49;;;;;;;28.85;15.20;;;;;;;12.10;98.51;100867.11;3558425;81;99643;-81
2022/04/15 08:04:51;;;;;;;24.07;14.07;;;;;;;12.01;98.56;100880.99;3567508;80;99238;-80
2022/04/15 08:09:52;;;;;;;26.50;15.30;;;;;;;11.94;98.58;100883.06;3581597;80;98513;-80
2022/04/15 08:14:53;;;;;;;21.57;14.47;;;;;;;11.95;98.90;100889.39;3577124;81;99253;-78
2022/04/15 08:19:54;;;;;;;22.87;14.97;;;;;;;11.94;98.64;100891.95;3578818;81;99023;-80
2022/04/15 08:24:55;;;;;;;18.70;13.10;;;;;;;11.91;98.65;100897.63;3571804;80;99277;-79
2022/04/15 08:29:56;;;;;;;17.73;11.40;;;;;;;11.81;98.58;100898.84;3571791;80;99722;-79
2022/04/15 08:34:56;;;;;;;17.47;11.57;;;;;;;11.77;98.72;100894.66;3577745;80;99317;-80
2022/04/15 08:39:57;;;;;;;21.87;12.30;;;;;;;11.79;98.92;100900.63;3586376;80;99312;-80
2022/04/15 08:44:58;;;;;;;22.07;11.93;;;;;;;11.93;99.61;100904.93;3574193;80;99034;-82
2022/04/15 08:49:59;;;;;;;13.70;8.30;;;;;;;12.03;98.94;100913.12;3577755;80;99048;-81
2022/04/15 08:55:01;;;;;;;16.23;8.73;;;;;;;12.02;98.10;100916.48;3573155;81;99025;-81
2022/04/15 09:00:05;;;;;;;25.60;14.95;;;;;;;12.04;97.21;100918.27;3561023;79;98912;-85
2022/04/15 09:05:07;;;;;;;17.20;10.17;;;;;;;12.09;96.77;100921.28;3570754;80;99176;-83
2022/04/15 09:10:10;;;;;;;18.55;12.37;;;;;;;12.22;97.14;100921.27;3551657;80;99206;-84
2022/04/15 09:15:14;;;;;;;16.25;10.63;;;;;;;12.22;97.14;100921.27;3576082;81;98912;-84
2022/04/15 09:20:15;;;;;;;19.27;10.43;;;;;;;12.31;97.01;100926.70;3574523;81;99008;-84
2022/04/15 09:25:16;;;;;;;18.10;10.33;;;;;;;12.41;96.98;100922.46;3572635;80;99062;-83
2022/04/15 09:30:17;;;;;;;16.50;9.37;;;;;;;12.49;96.80;100928.29;3575849;81;99147;-82
2022/04/15 09:35:18;;;;;;;18.03;10.37;;;;;;;12.65;96.86;100934.39;3570012;81;98976;-83
2022/04/15 09:40:25;;;;;;;13.90;8.27;;;;;;;12.87;96.97;100929.28;3559681;81;99186;-82
2022/04/15 09:45:28;;;;;;;;;;;;;;;13.27;96.45;100932.03;3555186;81;99221;-83
2022/04/15 09:50:37;;;;;;;15.35;10.25;;;;;;;13.48;94.32;100937.16;3553798;81;84960;-82
2022/04/15 09:55:42;;;;;;;16.65;9.05;;;;;;;13.59;94.09;100938.61;3556145;81;99151;-81
2022/04/15 10:00:48;;;;;;;17.20;10.72;;;;;;;13.72;92.56;100941.25;3560703;81;99367;-82
2022/04/15 10:05:50;;;;;;;;;;;;;;;13.69;91.35;100946.96;3559958;81;99198;-81
2022/04/15 10:10:52;;;;;;;16.20;9.60;;;;;;;13.64;90.12;100951.50;3563765;81;84169;-80
2022/04/15 10:15:54;;;;;;;13.38;9.30;;;;;;;13.43;89.08;100955.48;3557937;81;99132;-81
2022/04/15 10:20:55;;;;;;;14.50;9.63;;;;;;;13.19;89.48;100962.96;3562800;81;34816;-80
2022/04/15 10:26:00;;;;;;;16.62;10.23;;;;;;;13.11;88.92;100969.62;3559599;81;98872;-81
2022/04/15 10:31:11;;;;;;;19.32;12.70;;;;;;;12.85;88.87;100968.33;3564253;81;99542;-81
2022/04/15 10:36:23;;;;;;;15.75;9.75;;;;;;;12.57;89.16;100972.17;3561436;79;99406;-80
2022/04/15 10:41:24;;;;;;;15.20;9.90;;;;;;;12.11;89.17;100956.98;3576412;81;99013;-80
2022/04/15 10:46:31;;;;;;;17.53;9.30;;;;;;;12.11;89.17;100956.98;3575856;80;99007;-80
2022/04/15 10:51:35;;;;;;;13.00;8.23;;;;;;;11.77;90.08;100982.13;3561999;81;35473;-81
2022/04/15 10:56:59;;;;;;;12.93;8.37;;;;;;;11.77;90.08;100982.13;3575830;80;98888;-81
2022/04/15 11:02:05;;;;;;;11.57;7.50;;;;;;;11.56;90.82;100983.92;3464967;82;98823;-79
2022/04/15 11:07:28;;;;;;;12.70;6.97;;;;;;;11.56;90.82;100983.92;3551311;80;99068;-80
2022/04/15 11:12:44;;;;;;;15.93;8.78;;;;;;;11.36;91.53;100970.03;3581940;80;99021;-80
2022/04/15 11:17:47;;;;;;;15.55;9.50;;;;;;;11.36;91.53;100970.03;3584201;80;99397;-79
2022/04/15 11:22:49;;;;;;;14.87;10.50;;;;;;;11.37;91.42;100995.05;3589519;80;98898;-80
2022/04/15 11:27:51;;;;;;;16.35;10.60;;;;;;;11.34;91.53;100997.75;3575246;80;99301;-80
2022/04/15 11:32:53;;;;;;;16.40;9.77;;;;;;;11.34;91.73;101003.27;3575340;81;30370;-80
2022/04/15 11:37:58;;;;;;;17.52;8.70;;;;;;;11.24;91.42;101009.38;3580186;80;98912;-80
2022/04/15 11:42:59;;;;;;;18.00;9.58;;;;;;;11.02;91.47;100995.79;3566199;80;99048;-80
2022/04/15 11:48:21;;;;;;;17.40;10.20;;;;;;;11.16;92.03;101009.83;3590623;80;99468;-79
2022/04/15 11:53:23;;;;;;;17.48;10.38;;;;;;;11.20;92.15;101010.70;3591217;80;99545;-80
2022/04/15 11:58:26;;;;;;;20.12;15.13;;;;;;;11.18;92.24;101011.62;3594877;80;99574;-80
2022/04/15 12:03:28;;;;;;;29.32;20.48;;;;;;;11.24;92.32;101013.52;3604691;80;34668;-80
2022/04/15 12:08:29;;;;;;;21.20;13.75;;;;;;;11.22;92.28;101013.06;3595607;80;99435;-79
2022/04/15 12:13:32;;;;;;;20.93;15.07;;;;;;;11.23;91.80;101014.68;3601535;80;99456;-80
2022/04/15 12:18:33;;;;;;;16.60;9.83;;;;;;;11.12;91.71;101014.47;3581816;80;99222;-79
2022/04/15 12:23:34;;;;;;;13.90;7.40;;;;;;;10.97;91.35;101022.85;3576073;80;99049;-79
2022/04/15 12:34:03;;;;;;;12.85;7.62;;;;;;;10.98;91.37;101032.13;3614700;80;99820;-78
2022/04/15 12:39:05;;;;;;;14.78;8.13;;;;;;;10.92;91.58;101031.41;3616118;80;35205;-77
2022/04/15 12:44:30;;;;;;;12.75;7.20;;;;;;;10.99;92.18;101023.27;3609850;80;99319;-77
2022/04/15 12:49:34;;;;;;;14.63;8.20;;;;;;;11.18;93.15;101024.03;3623572;80;99015;-78
2022/04/15 12:55:03;;;;;;;13.78;7.67;;;;;;;11.30;92.63;101025.82;3605360;80;99039;-78
2022/04/15 13:00:11;;;;;;;12.53;8.05;;;;;;;11.50;91.72;101021.84;3625874;79;99360;-78
2022/04/15 13:05:12;;;;;;;16.20;8.20;;;;;;;11.50;91.72;101021.84;3605962;80;99103;-78
2022/04/15 13:10:13;;;;;;;12.27;6.47;;;;;;;11.51;91.05;101035.83;3629659;80;99346;-77
2022/04/15 13:15:14;;;;;;;10.97;7.03;;;;;;;11.44;90.72;101036.50;3610222;80;99051;-77
2022/04/15 13:20:15;;;;;;;13.47;6.17;;;;;;;11.36;90.49;101039.50;3623626;80;99256;-77
2022/04/15 13:25:16;;;;;;;11.80;6.25;;;;;;;11.30;90.23;101039.03;3608276;80;99199;-77
2022/04/15 13:30:18;;;;;;;10.47;5.63;;;;;;;11.22;89.85;101041.42;3615754;79;99327;-77
2022/04/15 13:35:19;;;;;;;10.93;5.90;;;;;;;11.09;89.84;101046.09;3615905;80;99489;-78
2022/04/15 13:40:20;;;;;;;10.90;5.40;;;;;;;11.08;89.91;101041.75;3606357;80;99088;-78
2022/04/15 13:45:23;;;;;;;10.67;5.77;;;;;;;11.07;90.07;101053.34;3610062;80;98877;-78
2022/04/15 13:50:24;;;;;;;11.48;6.10;;;;;;;11.06;90.04;101050.37;3612004;80;99002;-79
2022/04/15 14:00:44;;;;;;;11.68;6.17;;;;;;;11.06;90.17;101055.11;3594483;80;99028;-76
2022/04/15 14:05:46;;;;;;;12.77;6.70;;;;;;;10.95;90.17;101059.02;3598135;80;99118;-76
2022/04/15 14:10:47;;;;;;;11.83;6.67;;;;;;;10.90;90.19;101058.53;3577716;80;99395;-76
2022/04/15 14:15:48;;;;;;;11.87;6.57;;;;;;;10.87;90.35;101060.05;3617304;80;99332;-77
2022/04/15 14:20:49;;;;;;;11.53;5.40;;;;;;;10.82;90.75;101068.60;3606036;80;26235;-78
2022/04/15 14:25:51;;;;;;;10.45;5.72;;;;;;;10.82;90.93;101067.79;3574858;81;98897;-78
2022/04/15 14:30:52;;;;;;;14.73;8.57;;;;;;;10.82;91.17;101071.92;3577331;81;99248;-78
2022/04/15 14:35:53;;;;;;;10.90;6.30;;;;;;;10.80;91.54;101070.13;3580552;81;99209;-78
2022/04/15 14:40:55;;;;;;;12.73;6.72;;;;;;;10.74;91.51;101080.61;3563490;81;99509;-79
2022/04/15 14:45:56;;;;;;;9.67;5.57;;;;;;;10.74;91.91;101083.96;3555504;81;98952;-79
2022/04/15 14:50:57;;;;;;;10.00;5.60;;;;;;;10.68;92.23;101084.04;3565638;81;26360;-80
2022/04/15 14:56:00;;;;;;;11.83;6.53;;;;;;;10.57;92.51;101088.52;3553878;81;98942;-79
2022/04/15 15:01:02;;;;;;;17.65;12.23;;;;;;;10.57;93.08;101090.67;3560023;80;99130;-79
2022/04/15 15:06:03;;;;;;;14.00;8.13;;;;;;;10.48;93.41;101092.05;3526486;80;99652;-80
2022/04/15 15:11:08;;;;;;;14.47;7.93;;;;;;;10.41;93.76;101092.67;3563189;81;99093;-80
2022/04/15 15:16:09;;;;;;;12.88;7.35;;;;;;;10.40;94.32;101094.41;3554608;80;99819;-80
2022/04/15 15:21:10;;;;;;;17.13;8.43;;;;;;;10.35;94.50;101087.84;3562842;81;28226;-80
2022/04/15 15:31:30;;;;;;;32.00;17.25;;;;;;;10.34;95.18;101098.03;3559788;81;99327;-80
2022/04/15 15:36:31;;;;;;;17.50;9.27;;;;;;;10.30;95.38;101092.24;3556097;80;99219;-79
2022/04/15 15:41:33;;;;;;;12.07;6.60;;;;;;;10.28;95.69;101094.53;3584079;81;99396;-78
2022/04/15 15:46:33;;;;;;;14.00;9.03;;;;;;;10.28;95.77;101098.66;3577304;81;99029;-79
2022/04/15 15:51:36;;;;;;;13.77;7.03;;;;;;;10.22;96.17;101109.16;3585175;81;26181;-80
2022/04/15 15:56:38;;;;;;;13.50;7.67;;;;;;;10.15;96.48;101112.31;3582464;81;99189;-79
2022/04/15 16:01:39;;;;;;;15.38;8.78;;;;;;;10.06;96.80;101113.07;3585126;81;99274;-77
2022/04/15 16:06:41;;;;;;;16.67;9.23;;;;;;;9.96;97.12;101132.83;3580537;80;99575;-78
2022/04/15 16:11:42;;;;;;;24.47;14.10;;;;;;;9.82;97.79;101137.40;3609389;80;99354;-80
2022/04/15 16:16:43;;;;;;;25.97;15.13;;;;;;;9.62;97.71;101146.72;3592386;80;99477;-80
2022/04/15 16:21:45;;;;;;;28.67;17.07;;;;;;;9.45;97.65;101147.05;3613758;79;99526;-79
2022/04/15 16:26:46;;;;;;;28.53;16.00;;;;;;;9.28;97.81;101159.70;3570477;80;98783;-79
2022/04/15 16:31:47;;;;;;;28.63;16.13;;;;;;;9.17;97.89;101161.94;3617469;79;99168;-79
2022/04/15 16:36:49;;;;;;;25.80;15.10;;;;;;;9.03;97.92;101167.83;3582559;79;99245;-81
2022/04/15 16:41:52;;;;;;;29.43;16.10;;;;;;;8.86;98.28;101182.40;3613745;80;98749;-79
2022/04/15 16:46:55;;;;;;;29.45;15.83;;;;;;;8.74;98.52;101187.36;3634646;80;99216;-80
2022/04/15 16:51:59;;;;;;;28.02;13.60;;;;;;;8.68;98.92;101197.55;3643180;80;98794;-79
2022/04/15 17:02:19;;;;;;;20.57;10.48;;;;;;;8.50;98.93;101213.44;3645111;80;99037;-79
2022/04/15 17:07:20;;;;;;;18.30;9.57;;;;;;;8.42;98.88;101217.67;3617305;80;98932;-81
2022/04/15 17:12:21;;;;;;;19.20;9.13;;;;;;;8.35;98.77;101220.98;3599804;80;99090;-79
2022/04/15 17:17:22;;;;;;;17.97;9.63;;;;;;;8.29;98.90;101233.91;3600352;80;98592;-79
2022/04/15 17:22:26;;;;;;;17.43;10.20;;;;;;;8.23;99.20;101240.77;3609311;80;98736;-81
2022/04/15 17:27:26;;;;;;;18.37;10.25;;;;;;;8.17;99.22;101245.62;3602979;80;99013;-81
2022/04/15 17:32:27;;;;;;;21.53;11.43;;;;;;;8.19;99.45;101262.53;3607967;80;98714;-81
2022/04/15 17:37:28;;;;;;;21.70;11.80;;;;;;;8.09;99.01;101262.18;3602984;80;98902;-80
2022/04/15 17:42:29;;;;;;;22.50;11.37;;;;;;;8.01;99.39;101274.84;3608198;80;98858;-81
2022/04/15 17:47:31;;;;;;;20.20;11.10;;;;;;;7.89;99.51;101281.66;3605216;80;98903;-80
2022/04/15 17:52:32;;;;;;;21.13;10.47;;;;;;;7.82;99.48;101296.50;3601691;80;99274;-79
2022/04/15 17:57:33;;;;;;;22.30;12.00;;;;;;;7.77;99.57;101308.22;3603113;80;98382;-79
2022/04/15 18:02:34;;;;;;;19.70;11.20;;;;;;;7.71;99.49;101314.49;3607392;80;98469;-80
2022/04/15 18:07:35;;;;;;;20.77;11.20;;;;;;;7.62;99.63;101315.69;3573233;81;98690;-79
2022/04/15 18:12:36;;;;;;;25.53;10.93;;;;;;;7.63;99.79;101329.05;3562146;81;98697;-80
2022/04/15 18:17:37;;;;;;;22.03;11.87;;;;;;;7.61;99.64;101337.38;3567701;81;98906;-81
2022/04/15 18:22:38;;;;;;;23.37;12.27;;;;;;;7.59;99.76;101345.14;3578085;81;99334;-81
2022/04/15 18:27:39;;;;;;;26.30;12.47;;;;;;;7.54;99.68;101359.84;3555412;81;98550;-80
2022/04/15 18:32:40;;;;;;;23.10;12.17;;;;;;;7.53;99.73;101371.91;3578815;80;98476;-79
2022/04/15 18:37:42;;;;;;;25.25;11.33;;;;;;;7.47;99.39;101381.47;3553671;81;99041;-79
2022/04/15 18:42:43;;;;;;;23.40;12.53;;;;;;;7.43;99.55;101398.36;3589894;81;98903;-79
2022/04/15 18:47:45;;;;;;;18.33;9.90;;;;;;;7.32;99.41;101403.17;3527869;81;99292;-80
2022/04/15 18:52:46;;;;;;;22.30;11.20;;;;;;;7.19;99.28;101407.74;3594053;80;98767;-80
2022/04/15 18:57:49;;;;;;;21.27;11.13;;;;;;;7.10;99.29;101408.34;3583513;80;99482;-80
2022/04/15 19:02:50;;;;;;;20.30;10.40;;;;;;;7.08;99.42;101422.94;3588787;80;29633;-81
2022/04/15 19:07:53;;;;;;;20.07;11.03;;;;;;;7.08;99.56;101430.34;3596769;80;98647;-79
2022/04/15 19:12:54;;;;;;;18.52;9.80;;;;;;;7.12;99.43;101437.58;3596556;80;99194;-80
2022/04/15 19:17:55;;;;;;;19.23;9.67;;;;;;;7.05;99.19;101441.41;3591934;80;98995;-80
2022/04/15 19:22:56;;;;;;;19.00;9.55;;;;;;;6.95;98.81;101439.03;3598789;80;99219;-80
2022/04/15 19:27:57;;;;;;;17.10;9.47;;;;;;;6.95;98.98;101439.03;3590110;80;99113;-80
2022/04/15 19:32:59;;;;;;;18.07;9.10;;;;;;;6.92;98.75;101447.88;3602182;80;26610;-82
2022/04/15 19:38:03;;;;;;;17.10;8.57;;;;;;;6.85;98.65;101455.80;3563609;80;98675;-81
2022/04/15 19:43:05;;;;;;;14.33;7.35;;;;;;;6.78;98.72;101458.80;3597577;80;98902;-80
2022/04/15 19:48:06;;;;;;;16.20;8.23;;;;;;;6.69;98.66;101450.62;3593917;80;98643;-81
2022/04/15 19:53:07;;;;;;;17.53;7.53;;;;;;;6.69;98.55;101462.11;3593091;80;99442;-79
2022/04/15 20:03:32;;;;;;;18.23;9.15;;;;;;;6.66;98.15;101468.25;3586121;80;31468;-80
2022/04/15 20:08:34;;;;;;;17.35;7.75;;;;;;;6.62;98.11;101481.78;3586256;80;98740;-80
2022/04/15 20:13:37;;;;;;;14.45;7.50;;;;;;;6.57;98.19;101485.23;3600321;80;98950;-80
2022/04/15 20:18:38;;;;;;;15.65;7.40;;;;;;;6.53;97.93;101490.55;3594469;80;98597;-81
2022/04/15 20:23:39;;;;;;;15.77;6.73;;;;;;;6.48;98.21;101504.94;3600492;79;99075;-80
2022/04/15 20:28:40;;;;;;;12.73;6.53;;;;;;;6.33;97.80;101517.18;3595620;80;98715;-80
2022/04/15 20:33:41;;;;;;;12.27;5.50;;;;;;;6.29;97.95;101524.44;3604106;80;26187;-80
2022/04/15 20:38:43;;;;;;;11.03;5.53;;;;;;;6.25;97.79;101523.47;3592299;80;98736;-80
2022/04/15 20:43:45;;;;;;;13.27;4.93;;;;;;;6.13;97.04;101532.88;3593483;80;98868;-81
2022/04/15 20:54:06;;;;;;;9.90;3.97;;;;;;;5.94;97.07;101541.92;3584419;80;99111;-77
2022/04/15 20:59:07;;;;;;;13.93;4.43;;;;;;;5.87;96.71;101536.13;3591982;80;98957;-80
2022/04/15 21:04:08;;;;;;;9.97;4.03;;;;;;;5.86;96.39;101549.55;3583640;80;99124;-80
2022/04/15 21:09:10;;;;;;;7.03;2.83;;;;;;;5.84;96.25;101546.31;3594740;80;26214;-80
2022/04/15 21:14:11;;;;;;;6.93;2.93;;;;;;;5.75;95.77;101546.02;3593666;80;98840;-81
2022/04/15 21:19:12;;;;;;;9.00;3.03;;;;;;;5.62;95.28;101555.16;3592199;80;98656;-80
2022/04/15 21:24:12;;;;;;;6.20;2.60;;;;;;;5.57;95.10;101560.76;3598117;80;98987;-80
2022/04/15 21:29:15;;;;;;;6.27;2.40;;;;;;;5.49;94.90;101560.15;3598025;80;98868;-80
2022/04/15 21:34:16;;;;;;;4.87;2.07;;;;;;;5.42;94.51;101564.72;3589954;80;98921;-80
2022/04/15 21:39:18;;;;;;;4.80;2.10;;;;;;;5.37;94.35;101577.14;3591819;80;26209;-80
2022/04/15 21:44:21;;;;;;;6.97;2.40;;;;;;;5.31;94.28;101584.41;3560022;80;98615;-78
2022/04/15 21:49:23;;;;;;;5.90;2.20;;;;;;;5.24;93.85;101597.13;3564552;81;98744;-81
2022/04/15 21:54:24;;;;;;;9.45;3.08;;;;;;;5.22;93.75;101599.92;3554163;81;98870;-80
2022/04/15 21:59:28;;;;;;;6.43;2.47;;;;;;;5.23;93.67;101603.72;3565092;80;99037;-81
2022/04/15 22:04:29;;;;;;;5.33;1.98;;;;;;;5.21;93.05;101605.14;3557063;81;98888;-80
2022/04/15 22:09:30;;;;;;;5.00;1.40;;;;;;;5.19;92.70;101623.19;3562315;81;27705;-82
2022/04/15 22:14:37;;;;;;;6.80;2.00;;;;;;;5.26;92.44;101622.75;3556754;81;98807;-81
2022/04/15 22:19:37;;;;;;;4.97;1.87;;;;;;;5.31;91.58;101628.08;3568390;80;98876;-82
2022/04/15 22:24:48;;;;;;;4.72;1.80;;;;;;;5.26;91.61;101637.77;3554449;81;99075;-81
2022/04/15 22:29:49;;;;;;;8.73;2.02;;;;;;;5.33;91.37;101644.40;3566469;81;99107;-81
2022/04/15 22:34:50;;;;;;;7.53;2.00;;;;;;;5.34;90.28;101668.42;3561455;80;99063;-81
2022/04/15 22:39:51;;;;;;;4.27;1.53;;;;;;;5.24;89.67;101664.58;3563720;81;98648;-81
2022/04/15 22:44:52;;;;;;;5.53;2.23;;;;;;;5.19;89.96;101664.13;3560535;81;98177;-81
2022/04/15 22:49:54;;;;;;;6.30;2.10;;;;;;;5.15;89.90;101670.52;3556551;80;98774;-81
2022/04/15 23:00:17;;;;;;;7.73;1.90;;;;;;;5.02;89.19;101680.95;3555136;81;98881;-81
2022/04/15 23:05:19;;;;;;;5.12;2.10;;;;;;;4.77;87.78;101672.81;3546852;81;98681;-81
2022/04/15 23:10:20;;;;;;;5.37;1.67;;;;;;;4.77;87.83;101683.72;3564693;81;98833;-79
2022/04/15 23:15:21;;;;;;;6.40;2.07;;;;;;;4.63;86.81;101688.39;3551684;81;98462;-81
2022/04/15 23:20:22;;;;;;;4.83;1.87;;;;;;;4.57;87.69;101688.25;3567133;81;98332;-80
2022/04/15 23:25:23;;;;;;;3.20;1.63;;;;;;;4.54;87.46;101701.70;3550786;81;98875;-80
2022/04/15 23:30:24;;;;;;;6.33;1.83;;;;;;;4.48;87.06;101698.84;3548757;81;98411;-80
2022/04/15 23:35:25;;;;;;;6.63;1.80;;;;;;;4.44;87.38;101707.36;3548936;81;99000;-81
2022/04/15 23:40:27;;;;;;;5.03;1.90;;;;;;;4.44;87.80;101703.28;3553039;81;98977;-81
2022/04/15 23:45:28;;;;;;;7.35;1.90;;;;;;;4.46;88.03;101718.22;3550350;81;98184;-80